createdAt,value
2023-05-11T00:01:28.552Z,4.55
2023-05-11T00:03:56.274Z,5.03
2023-05-11T00:06:23.197Z,4.38
2023-05-11T00:08:50.085Z,4.93
2023-05-11T00:11:18.526Z,3.67
2023-05-11T00:13:45.711Z,4.85
2023-05-11T00:16:12.701Z,3.85
2023-05-11T00:18:39.364Z,5.22
2023-05-11T00:21:06.098Z,3.30
2023-05-11T00:23:32.665Z,4.55
2023-05-11T00:25:59.274Z,5.22
2023-05-11T00:28:25.996Z,3.28
2023-05-11T00:30:58.720Z,3.63
2023-05-11T00:33:26.085Z,4.65
2023-05-11T00:35:52.880Z,3.88
2023-05-11T00:38:19.703Z,4.10
2023-05-11T00:40:46.392Z,4.95
2023-05-11T00:43:13.229Z,4.30
2023-05-11T00:45:40.582Z,5.10
2023-05-11T00:48:07.618Z,5.15
2023-05-11T00:50:35.649Z,3.80
2023-05-11T00:53:03.022Z,4.97
2023-05-11T00:55:30.332Z,6.13
2023-05-11T00:57:57.267Z,3.78
2023-05-11T01:00:23.936Z,3.78
2023-05-11T01:02:51.549Z,4.97
2023-05-11T01:05:18.418Z,4.03
2023-05-11T01:07:55.063Z,4.00
2023-05-11T01:10:30.023Z,4.90
2023-05-11T01:13:26.694Z,3.35
2023-05-11T01:15:57.053Z,2.75
2023-05-11T01:18:38.471Z,4.93
2023-05-11T01:21:11.924Z,2.55
2023-05-11T01:23:57.298Z,3.65
2023-05-11T01:26:27.456Z,3.97
2023-05-11T01:29:15.449Z,4.45
2023-05-11T01:31:44.432Z,3.95
2023-05-11T01:34:19.377Z,4.55
2023-05-11T01:36:52.192Z,3.58
2023-05-11T01:39:25.512Z,4.25
2023-05-11T01:41:54.868Z,3.90
2023-05-11T01:44:25.702Z,4.70
2023-05-11T01:46:53.370Z,4.88
2023-05-11T01:49:21.760Z,4.65
2023-05-11T01:51:51.410Z,4.95
2023-05-11T01:54:21.297Z,5.10
2023-05-11T01:56:52.006Z,4.55
2023-05-11T01:59:19.546Z,4.95
2023-05-11T02:01:47.584Z,4.43
2023-05-11T02:04:15.789Z,3.58
2023-05-11T02:06:47.144Z,4.65
2023-05-11T02:09:16.848Z,5.40
2023-05-11T02:11:45.723Z,4.28
2023-05-11T02:14:18.671Z,4.93
2023-05-11T02:16:48.087Z,4.75
2023-05-11T02:19:15.668Z,4.93
2023-05-11T02:21:44.073Z,6.85
2023-05-11T02:24:11.585Z,5.03
2023-05-11T02:26:38.294Z,4.07
2023-05-11T02:29:05.217Z,7.57
2023-05-11T02:31:36.442Z,5.32
2023-05-11T02:34:09.854Z,7.00
2023-05-11T02:36:38.891Z,8.40
2023-05-11T02:39:09.578Z,5.38
2023-05-11T02:41:43.397Z,5.35
2023-05-11T02:44:15.674Z,6.60
2023-05-11T02:46:47.603Z,5.75
2023-05-11T02:49:18.428Z,6.25
2023-05-11T02:51:46.365Z,6.72
2023-05-11T02:56:46.295Z,4.78
2023-05-11T02:59:14.365Z,5.47
2023-05-11T03:01:41.823Z,6.32
2023-05-11T03:04:10.052Z,8.02
2023-05-11T03:06:37.393Z,7.65
2023-05-11T03:09:09.249Z,5.03
2023-05-11T03:11:41.491Z,6.25
2023-05-11T03:14:09.447Z,9.43
2023-05-11T03:16:37.992Z,6.97
2023-05-11T03:19:07.199Z,10.48
2023-05-11T03:21:36.139Z,7.20
2023-05-11T03:24:05.452Z,8.70
2023-05-11T03:26:34.298Z,6.95
2023-05-11T03:29:03.156Z,6.80
2023-05-11T03:31:30.004Z,11.95
2023-05-11T03:33:58.927Z,15.60
2023-05-11T03:36:27.125Z,11.45
2023-05-11T03:38:58.519Z,11.43
2023-05-11T03:41:34.079Z,9.55
2023-05-11T03:44:05.565Z,13.15
2023-05-11T03:46:36.135Z,10.23
2023-05-11T03:49:05.208Z,9.65
2023-05-11T03:51:34.378Z,10.20
2023-05-11T03:54:01.561Z,13.32
2023-05-11T03:56:28.351Z,10.20
2023-05-11T03:58:55.027Z,11.05
2023-05-11T04:01:22.795Z,11.75
2023-05-11T04:06:21.564Z,9.93
2023-05-11T04:08:55.824Z,8.60
2023-05-11T04:11:22.930Z,10.63
2023-05-11T04:13:49.670Z,9.43
2023-05-11T04:16:16.654Z,10.10
2023-05-11T04:18:43.376Z,12.30
2023-05-11T04:21:10.053Z,9.90
2023-05-11T04:23:37.062Z,7.15
2023-05-11T04:26:03.744Z,8.15
2023-05-11T04:28:30.466Z,6.90
2023-05-11T04:30:57.939Z,8.38
2023-05-11T04:33:25.042Z,7.80
2023-05-11T04:35:54.618Z,9.45
2023-05-11T04:38:22.667Z,5.93
2023-05-11T04:40:50.746Z,6.53
2023-05-11T04:43:18.934Z,5.15
2023-05-11T04:45:49.490Z,5.25
2023-05-11T04:48:20.944Z,5.65
2023-05-11T04:50:48.357Z,4.88
2023-05-11T04:53:16.792Z,6.63
2023-05-11T04:55:44.155Z,4.80
2023-05-11T04:58:10.828Z,6.95
2023-05-11T05:00:37.874Z,6.85
2023-05-11T05:03:04.631Z,5.25
2023-05-11T05:05:32.414Z,6.63
2023-05-11T05:07:59.064Z,5.53
2023-05-11T05:10:26.093Z,6.75
2023-05-11T05:12:52.957Z,3.78
2023-05-11T05:15:21.312Z,6.15
2023-05-11T05:17:48.088Z,6.45
2023-05-11T05:20:16.350Z,6.80
2023-05-11T05:22:43.182Z,5.28
2023-05-11T05:25:10.102Z,6.05
2023-05-11T05:27:36.954Z,6.93
2023-05-11T05:30:07.518Z,7.80
2023-05-11T05:32:34.288Z,6.07
2023-05-11T05:35:00.983Z,10.80
2023-05-11T05:37:28.169Z,4.97
2023-05-11T05:39:57.773Z,8.25
2023-05-11T05:42:24.808Z,8.68
2023-05-11T05:44:52.242Z,7.20
2023-05-11T05:47:19.802Z,8.40
2023-05-11T05:49:46.880Z,7.55
2023-05-11T05:52:13.912Z,9.80
2023-05-11T05:54:41.627Z,10.15
2023-05-11T05:57:08.517Z,6.32
2023-05-11T05:59:35.413Z,7.47
2023-05-11T06:02:02.310Z,6.82
2023-05-11T06:04:30.311Z,6.60
2023-05-11T06:06:58.591Z,9.48
2023-05-11T06:09:25.697Z,8.43
2023-05-11T06:11:54.140Z,7.55
2023-05-11T06:14:22.720Z,6.78
2023-05-11T06:16:50.272Z,6.53
2023-05-11T06:19:17.116Z,7.65
2023-05-11T06:24:13.726Z,4.78
2023-05-11T06:26:42.945Z,8.63
2023-05-11T06:29:10.501Z,7.40
2023-05-11T06:31:37.813Z,7.35
2023-05-11T06:34:05.357Z,7.95
2023-05-11T06:36:33.546Z,8.20
2023-05-11T06:39:00.200Z,9.13
2023-05-11T06:41:27.410Z,11.05
2023-05-11T06:43:55.311Z,6.50
2023-05-11T06:46:27.567Z,8.63
2023-05-11T06:48:54.325Z,8.35
2023-05-11T06:51:21.972Z,7.80
2023-05-11T06:53:48.845Z,8.57
2023-05-11T06:56:15.907Z,7.80
2023-05-11T06:58:42.959Z,9.85
2023-05-11T07:01:11.584Z,9.85
2023-05-11T07:03:38.407Z,9.50
2023-05-11T07:06:05.202Z,9.20
2023-05-11T07:08:31.888Z,8.43
2023-05-11T07:10:58.634Z,11.55
2023-05-11T07:13:25.490Z,7.78
2023-05-11T07:15:57.937Z,9.32
2023-05-11T07:18:24.808Z,10.32
2023-05-11T07:20:51.570Z,8.57
2023-05-11T07:23:21.470Z,8.93
2023-05-11T07:25:51.703Z,10.35
2023-05-11T07:28:18.378Z,7.63
2023-05-11T07:30:45.048Z,5.53
2023-05-11T07:33:11.702Z,8.43
2023-05-11T07:35:38.417Z,8.65
2023-05-11T07:38:10.699Z,9.68
2023-05-11T07:40:37.462Z,8.90
2023-05-11T07:43:04.270Z,10.90
2023-05-11T07:45:31.546Z,8.13
2023-05-11T07:47:58.328Z,8.35
2023-05-11T07:50:25.286Z,8.52
2023-05-11T07:52:52.195Z,7.05
2023-05-11T07:55:20.413Z,8.38
2023-05-11T07:57:47.235Z,8.43
2023-05-11T08:00:14.387Z,8.18
2023-05-11T08:02:41.029Z,8.68
2023-05-11T08:05:08.887Z,11.60
2023-05-11T08:07:35.630Z,7.30
2023-05-11T08:10:05.764Z,9.43
2023-05-11T08:12:32.714Z,10.43
2023-05-11T08:15:00.766Z,8.80
2023-05-11T08:17:30.093Z,7.10
2023-05-11T08:19:57.251Z,7.32
2023-05-11T08:22:24.068Z,10.02
2023-05-11T08:24:51.266Z,9.32
2023-05-11T08:27:17.905Z,7.03
2023-05-11T08:29:44.795Z,9.07
2023-05-11T08:32:11.511Z,6.60
2023-05-11T08:34:38.348Z,4.43
2023-05-11T08:37:05.495Z,7.80
2023-05-11T08:42:16.308Z,9.43
2023-05-11T08:44:44.333Z,9.35
2023-05-11T08:47:22.563Z,5.72
2023-05-11T08:52:18.764Z,6.05
2023-05-11T08:54:46.374Z,5.97
2023-05-11T08:57:14.413Z,4.80
2023-05-11T08:59:44.490Z,8.35
2023-05-11T09:02:15.905Z,5.60
2023-05-11T09:04:46.018Z,4.03
2023-05-11T09:07:18.698Z,5.35
2023-05-11T09:09:46.918Z,4.20
2023-05-11T09:12:14.141Z,3.40
2023-05-11T09:14:40.844Z,4.88
2023-05-11T09:17:07.696Z,3.08
2023-05-11T09:19:34.529Z,4.75
2023-05-11T09:22:01.311Z,4.53
2023-05-11T09:24:29.237Z,3.20
2023-05-11T09:27:08.245Z,3.30
2023-05-11T09:29:35.151Z,3.20
2023-05-11T09:32:01.771Z,3.60
2023-05-11T09:34:28.300Z,3.33
2023-05-11T09:36:56.907Z,2.35
2023-05-11T09:39:42.091Z,3.72
2023-05-11T09:42:21.702Z,2.47
2023-05-11T09:44:48.839Z,1.90
2023-05-11T09:49:45.555Z,2.92
2023-05-11T09:52:13.242Z,2.28
2023-05-11T09:54:47.759Z,2.20
2023-05-11T09:57:29.545Z,3.97
2023-05-11T09:59:58.399Z,3.75
2023-05-11T10:02:26.320Z,3.47
2023-05-11T10:04:55.509Z,4.75
2023-05-11T10:07:27.944Z,2.45
2023-05-11T10:09:56.358Z,2.25
2023-05-11T10:12:25.644Z,2.30
2023-05-11T10:14:58.878Z,2.75
2023-05-11T10:17:25.729Z,3.10
2023-05-11T10:19:56.269Z,2.90
2023-05-11T10:22:24.810Z,2.67
2023-05-11T10:24:52.055Z,5.28
2023-05-11T10:27:20.393Z,2.05
2023-05-11T10:29:47.890Z,5.63
2023-05-11T10:32:16.864Z,1.67
2023-05-11T10:34:46.422Z,2.80
2023-05-11T10:37:14.797Z,2.45
2023-05-11T10:39:42.714Z,2.42
2023-05-11T10:42:33.438Z,2.83
2023-05-11T10:45:13.613Z,2.33
2023-05-11T10:48:06.704Z,1.85
2023-05-11T10:50:51.924Z,3.67
2023-05-11T10:56:26.193Z,1.52
2023-05-11T10:59:21.617Z,2.20
2023-05-11T11:01:52.245Z,2.03
2023-05-11T11:04:20.547Z,1.98
2023-05-11T11:06:47.230Z,1.92
2023-05-11T11:09:16.341Z,2.90
2023-05-11T11:11:46.497Z,1.58
2023-05-11T11:14:15.147Z,1.80
2023-05-11T11:17:17.118Z,2.70
2023-05-11T11:19:44.214Z,1.65
2023-05-11T11:22:39.131Z,5.13
2023-05-11T11:25:07.986Z,2.10
2023-05-11T11:27:40.688Z,2.63
2023-05-11T11:30:17.440Z,2.47
2023-05-11T11:32:46.281Z,2.03
2023-05-11T11:35:41.628Z,2.25
2023-05-11T11:38:19.724Z,1.45
2023-05-11T11:40:52.453Z,2.08
2023-05-11T11:43:43.513Z,2.40
2023-05-11T11:46:25.520Z,2.10
2023-05-11T11:48:54.941Z,1.88
2023-05-11T11:51:33.308Z,3.97
2023-05-11T11:54:00.999Z,1.73
2023-05-11T11:56:30.945Z,1.95
2023-05-11T11:59:01.252Z,1.92
2023-05-11T12:01:30.657Z,1.38
2023-05-11T12:04:17.423Z,2.33
2023-05-11T12:06:47.933Z,1.85
2023-05-11T12:09:19.314Z,1.45
2023-05-11T12:11:47.728Z,1.85
2023-05-11T12:14:15.162Z,2.15
2023-05-11T12:16:41.988Z,1.60
2023-05-11T12:19:08.707Z,1.65
2023-05-11T12:21:35.514Z,1.75
2023-05-11T12:24:05.233Z,1.35
2023-05-11T12:26:33.273Z,2.08
2023-05-11T12:29:08.043Z,2.83
2023-05-11T12:31:38.966Z,1.70
2023-05-11T12:34:05.825Z,1.58
2023-05-11T12:39:04.734Z,5.45
2023-05-11T12:41:32.177Z,11.43
2023-05-11T12:43:59.205Z,2.92
2023-05-11T12:46:26.061Z,1.40
2023-05-11T12:48:52.908Z,0.63
2023-05-11T12:51:47.712Z,1.63
2023-05-11T12:54:29.858Z,1.13
2023-05-11T12:56:56.649Z,1.27
2023-05-11T12:59:25.891Z,1.05
2023-05-11T13:01:52.782Z,1.23
2023-05-11T13:04:28.938Z,1.63
2023-05-11T13:06:55.768Z,1.48
2023-05-11T13:09:26.585Z,1.02
2023-05-11T13:12:10.937Z,1.42
2023-05-11T13:14:38.336Z,1.75
2023-05-11T13:17:05.350Z,3.10
2023-05-11T13:19:33.453Z,2.67
2023-05-11T13:22:00.201Z,3.10
2023-05-11T13:24:26.992Z,3.35
2023-05-11T13:26:55.768Z,2.58
2023-05-11T13:29:22.546Z,2.72
2023-05-11T13:34:18.023Z,2.63
2023-05-11T13:36:44.951Z,2.10
2023-05-11T13:39:11.917Z,2.58
2023-05-11T13:44:05.537Z,1.27
2023-05-11T13:46:32.118Z,1.25
2023-05-11T13:49:00.390Z,3.08
2023-05-11T13:51:27.697Z,1.00
2023-05-11T13:56:22.086Z,1.25
2023-05-11T13:58:48.962Z,1.10
2023-05-11T14:01:15.812Z,1.77
2023-05-11T14:03:42.599Z,0.98
2023-05-11T14:06:09.373Z,0.88
2023-05-11T14:08:36.036Z,1.17
2023-05-11T14:11:02.665Z,1.30
2023-05-11T14:13:29.305Z,2.85
2023-05-11T14:15:56.902Z,2.22
2023-05-11T14:18:24.868Z,1.65
2023-05-11T14:20:51.955Z,0.57
2023-05-11T14:23:18.599Z,0.95
2023-05-11T14:25:45.208Z,1.08
2023-05-11T14:28:11.814Z,2.63
2023-05-11T14:30:38.547Z,1.33
2023-05-11T14:33:05.468Z,0.77
2023-05-11T14:35:32.297Z,2.58
2023-05-11T14:37:59.038Z,0.95
2023-05-11T14:40:25.798Z,1.15
2023-05-11T14:42:52.813Z,1.25
2023-05-11T14:45:19.779Z,0.93
2023-05-11T14:47:46.770Z,1.50
2023-05-11T14:50:13.372Z,1.33
2023-05-11T14:52:39.949Z,3.25
2023-05-11T14:55:07.044Z,1.08
2023-05-11T14:57:33.651Z,0.82
2023-05-11T15:00:00.962Z,0.65
2023-05-11T15:02:28.912Z,2.47
2023-05-11T15:04:55.999Z,2.28
2023-05-11T15:07:22.747Z,0.98
2023-05-11T15:09:50.789Z,1.40
2023-05-11T15:12:17.382Z,0.57
2023-05-11T15:14:43.910Z,1.65
2023-05-11T15:17:10.729Z,1.58
2023-05-11T15:19:37.372Z,2.25
2023-05-11T15:22:05.482Z,1.33
2023-05-11T15:24:32.215Z,3.72
2023-05-11T15:26:59.274Z,1.65
2023-05-11T15:29:25.939Z,3.35
2023-05-11T15:31:52.677Z,2.22
2023-05-11T15:34:19.278Z,1.35
2023-05-11T15:36:48.486Z,0.65
2023-05-11T15:39:16.985Z,1.25
2023-05-11T15:41:43.743Z,2.47
2023-05-11T15:44:10.452Z,0.95
2023-05-11T15:46:38.490Z,1.27
2023-05-11T15:49:05.128Z,0.35
2023-05-11T15:51:32.017Z,1.33
2023-05-11T15:53:58.626Z,0.52
2023-05-11T15:56:26.406Z,4.38
2023-05-11T15:58:53.195Z,1.92
2023-05-11T16:01:19.861Z,0.22
2023-05-11T16:03:46.959Z,1.48
2023-05-11T16:06:13.724Z,2.88
2023-05-11T16:08:41.726Z,3.65
2023-05-11T16:11:08.457Z,1.15
2023-05-11T16:13:35.060Z,1.92
2023-05-11T16:16:01.731Z,1.40
2023-05-11T16:18:28.601Z,1.30
2023-05-11T16:20:55.322Z,1.08
2023-05-11T16:23:22.009Z,0.75
2023-05-11T16:25:48.686Z,2.53
2023-05-11T16:28:15.277Z,1.05
2023-05-11T16:30:42.237Z,1.40
2023-05-11T16:33:08.954Z,0.75
2023-05-11T16:35:35.531Z,0.55
2023-05-11T16:38:02.521Z,1.85
2023-05-11T16:40:29.210Z,0.68
2023-05-11T16:42:55.808Z,1.33
2023-05-11T16:45:22.612Z,1.00
2023-05-11T16:47:49.458Z,0.55
2023-05-11T16:50:18.166Z,3.53
2023-05-11T16:52:45.191Z,0.52
2023-05-11T16:55:13.523Z,2.65
2023-05-11T16:57:40.480Z,0.93
2023-05-11T17:00:08.820Z,0.95
2023-05-11T17:02:35.514Z,1.17
2023-05-11T17:05:02.418Z,1.02
2023-05-11T17:07:29.088Z,1.90
2023-05-11T17:09:57.163Z,1.80
2023-05-11T17:12:24.282Z,1.20
2023-05-11T17:14:50.979Z,2.15
2023-05-11T17:17:17.662Z,0.93
2023-05-11T17:19:44.361Z,1.17
2023-05-11T17:22:11.219Z,1.85
2023-05-11T17:24:38.129Z,2.15
2023-05-11T17:27:05.025Z,0.80
2023-05-11T17:29:31.697Z,0.38
2023-05-11T17:31:58.651Z,1.02
2023-05-11T17:34:28.359Z,0.68
2023-05-11T17:36:56.597Z,0.25
2023-05-11T17:39:23.216Z,0.77
2023-05-11T17:41:49.891Z,0.55
2023-05-11T17:44:16.611Z,0.45
2023-05-11T17:46:43.264Z,0.10
2023-05-11T17:49:10.257Z,0.95
2023-05-11T17:51:37.276Z,0.93
2023-05-11T17:54:04.000Z,0.90
2023-05-11T17:56:31.289Z,0.98
2023-05-11T17:58:58.009Z,0.75
2023-05-11T18:01:25.247Z,6.47
2023-05-11T18:06:19.138Z,1.05
2023-05-11T18:08:45.839Z,1.55
2023-05-11T18:11:13.914Z,4.65
2023-05-11T18:16:07.472Z,1.52
2023-05-11T18:18:34.418Z,0.98
2023-05-11T18:21:08.110Z,0.25
2023-05-11T18:23:34.720Z,1.00
2023-05-11T18:26:01.405Z,3.35
2023-05-11T18:28:28.429Z,1.50
2023-05-11T18:30:55.590Z,0.93
2023-05-11T18:33:22.263Z,0.80
2023-05-11T18:35:51.373Z,3.35
2023-05-11T18:38:18.051Z,1.25
2023-05-11T18:40:44.975Z,0.93
2023-05-11T18:43:12.182Z,1.20
2023-05-11T18:45:40.798Z,1.30
2023-05-11T18:48:07.622Z,0.75
2023-05-11T18:50:34.383Z,1.42
2023-05-11T18:53:02.073Z,2.22
2023-05-11T18:55:30.827Z,3.28
2023-05-11T18:57:58.128Z,1.42
2023-05-11T19:00:24.823Z,1.33
2023-05-11T19:02:51.998Z,0.95
2023-05-11T19:05:19.329Z,1.70
2023-05-11T19:07:46.076Z,2.15
2023-05-11T19:10:12.888Z,0.52
2023-05-11T19:12:39.509Z,1.10
2023-05-11T19:15:06.738Z,1.83
2023-05-11T19:17:33.518Z,5.13
2023-05-11T19:20:00.169Z,2.15
2023-05-11T19:22:27.007Z,2.92
2023-05-11T19:24:53.569Z,1.48
2023-05-11T19:27:20.341Z,1.50
2023-05-11T19:29:50.337Z,1.27
2023-05-11T19:32:18.757Z,0.93
2023-05-11T19:34:45.785Z,0.75
2023-05-11T19:37:12.464Z,0.60
2023-05-11T19:39:39.076Z,1.73
2023-05-11T19:42:06.926Z,0.75
2023-05-11T19:44:36.365Z,1.02
2023-05-11T19:47:02.984Z,0.75
2023-05-11T19:49:29.660Z,0.77
2023-05-11T19:51:56.292Z,1.05
2023-05-11T19:54:22.960Z,1.05
2023-05-11T19:56:49.602Z,0.45
2023-05-11T19:59:16.206Z,0.82
2023-05-11T20:01:42.935Z,1.20
2023-05-11T20:04:11.798Z,1.25
2023-05-11T20:06:38.375Z,2.95
2023-05-11T20:09:05.188Z,1.55
2023-05-11T20:11:31.772Z,4.03
2023-05-11T20:14:00.768Z,1.27
2023-05-11T20:16:30.290Z,0.85
2023-05-11T20:18:59.124Z,4.20
2023-05-11T20:21:26.092Z,1.52
2023-05-11T20:23:52.720Z,1.65
2023-05-11T20:26:19.328Z,1.50
2023-05-11T20:28:45.984Z,1.10
2023-05-11T20:31:12.575Z,3.42
2023-05-11T20:36:09.351Z,1.17
2023-05-11T20:38:36.035Z,1.75
2023-05-11T20:41:03.115Z,0.82
2023-05-11T20:43:29.739Z,2.97
2023-05-11T20:46:05.232Z,0.70
2023-05-11T20:48:40.504Z,1.88
2023-05-11T20:51:08.004Z,1.30
2023-05-11T20:53:34.717Z,1.08
2023-05-11T20:56:02.811Z,0.63
2023-05-11T20:58:31.517Z,0.68
2023-05-11T21:00:58.322Z,0.22
2023-05-11T21:03:26.531Z,1.00
2023-05-11T21:05:53.493Z,0.95
2023-05-11T21:08:20.292Z,0.75
2023-05-11T21:10:46.940Z,0.93
2023-05-11T21:13:13.540Z,0.40
2023-05-11T21:15:41.156Z,3.72
2023-05-11T21:18:08.113Z,0.55
2023-05-11T21:20:36.034Z,1.52
2023-05-11T21:23:02.880Z,0.63
2023-05-11T21:25:29.603Z,0.55
2023-05-11T21:27:56.299Z,0.55
2023-05-11T21:30:23.187Z,0.38
2023-05-11T21:32:50.546Z,0.50
2023-05-11T21:35:17.487Z,0.68
2023-05-11T21:37:50.001Z,0.32
2023-05-11T21:40:17.951Z,1.02
2023-05-11T21:42:45.023Z,0.82
2023-05-11T21:45:12.113Z,0.98
2023-05-11T21:47:39.031Z,2.28
2023-05-11T21:50:06.912Z,0.82
2023-05-11T21:52:33.537Z,0.52
2023-05-11T21:55:00.120Z,0.95
2023-05-11T21:57:26.903Z,1.92
2023-05-11T21:59:53.532Z,1.17
2023-05-11T22:02:20.152Z,0.90
2023-05-11T22:04:47.212Z,0.95
2023-05-11T22:07:14.107Z,0.75
2023-05-11T22:09:40.684Z,0.68
2023-05-11T22:12:07.943Z,1.83
2023-05-11T22:14:34.597Z,0.68
2023-05-11T22:17:01.348Z,0.82
2023-05-11T22:19:29.055Z,0.95
2023-05-11T22:21:56.746Z,0.40
2023-05-11T22:24:24.985Z,8.15
2023-05-11T22:26:51.811Z,0.80
2023-05-11T22:29:18.448Z,0.93
2023-05-11T22:31:46.143Z,1.02
2023-05-11T22:34:13.133Z,1.42
2023-05-11T22:36:39.693Z,0.93
2023-05-11T22:39:06.431Z,2.17
2023-05-11T22:41:33.127Z,1.30
2023-05-11T22:44:00.048Z,1.40
2023-05-11T22:46:26.747Z,0.85
2023-05-11T22:48:53.440Z,0.47
2023-05-11T22:51:20.040Z,0.88
2023-05-11T22:53:48.222Z,0.60
2023-05-11T22:56:14.932Z,0.93
2023-05-11T22:58:41.561Z,1.33
2023-05-11T23:01:08.601Z,1.83
2023-05-11T23:03:35.336Z,1.02
2023-05-11T23:06:01.990Z,0.63
2023-05-11T23:08:28.563Z,1.27
2023-05-11T23:10:55.690Z,0.98
2023-05-11T23:13:22.408Z,1.42
2023-05-11T23:15:49.351Z,1.55
2023-05-11T23:18:16.295Z,2.83
2023-05-11T23:20:42.990Z,1.38
2023-05-11T23:23:10.061Z,3.50
2023-05-11T23:25:37.208Z,0.60
2023-05-11T23:28:03.810Z,0.98
2023-05-11T23:30:30.603Z,0.32
2023-05-11T23:32:57.417Z,1.88
2023-05-11T23:35:24.017Z,6.22
2023-05-11T23:37:51.034Z,1.65
2023-05-11T23:40:18.632Z,1.45
2023-05-11T23:45:12.318Z,0.50
2023-05-11T23:47:39.135Z,1.02
2023-05-11T23:50:07.393Z,1.50
2023-05-11T23:52:34.410Z,2.88
2023-05-11T23:55:01.005Z,1.20
2023-05-11T23:57:27.853Z,1.20
2023-05-11T23:59:54.408Z,0.85
